Time;durP1;ratioP1;P1;durP2;ratioP2;P2;SDS_P1;SDS_P2;PMS_P1;PMS_P2;Temp;Humidity;BMP_temperature;BMP_pressure;BME280_temperature;BME280_humidity;BME280_pressure;Samples;Min_cycle;Max_cycle;Signal;HPM_P1;HPM_P2
2022/06/03 00:06:07;;;;;;;16.93;8.57;;;;;;;12.07;92.80;101054.44;712464;1177;115440;-72
2022/06/03 00:21:32;;;;;;;11.70;8.28;;;;;;;11.79;92.16;101060.11;712576;1178;115518;-72
2022/06/03 00:36:44;;;;;;;14.15;7.20;;;;;;;11.65;93.56;101044.62;712395;1179;115818;-71
2022/06/03 00:52:07;;;;;;;11.08;7.45;;;;;;;11.60;93.40;101052.89;712463;1180;115182;-72
2022/06/03 01:07:42;;;;;;;16.60;9.40;;;;;;;11.40;92.79;101054.48;712317;1180;115197;-71
2022/06/03 01:22:57;;;;;;;19.97;12.33;;;;;;;11.27;92.59;101064.27;711787;1179;116031;-72
2022/06/03 01:38:09;;;;;;;12.63;7.43;;;;;;;10.92;93.88;101063.44;712306;1177;115137;-71
2022/06/03 01:53:30;;;;;;;17.33;9.23;;;;;;;10.93;93.67;101067.74;712725;1180;114364;-72
2022/06/03 02:09:09;;;;;;;16.98;8.68;;;;;;;10.75;92.56;101064.73;712588;1177;115413;-71
2022/06/03 02:24:42;;;;;;;12.00;7.85;;;;;;;10.47;92.51;101071.25;712394;1177;115014;-71
2022/06/03 02:40:06;;;;;;;13.53;7.75;;;;;;;10.49;93.10;101066.71;712356;1179;115754;-73
2022/06/03 02:55:42;;;;;;;10.60;6.58;;;;;;;10.47;92.55;101076.50;712287;1180;115452;-71
2022/06/03 03:11:23;;;;;;;12.80;7.98;;;;;;;10.59;93.11;101086.06;713112;1179;114479;-72
2022/06/03 03:26:39;;;;;;;12.35;7.50;;;;;;;10.56;92.97;101085.48;712089;1179;114926;-72
2022/06/03 03:42:20;;;;;;;16.43;9.88;;;;;;;10.96;94.01;101079.80;712699;1180;114537;-72
2022/06/03 03:58:01;;;;;;;14.13;8.30;;;;;;;11.21;94.33;101093.66;712961;1177;115782;-72
2022/06/03 04:13:34;;;;;;;15.55;8.95;;;;;;;11.66;94.43;101102.31;712142;1177;115796;-72
2022/06/03 04:28:52;;;;;;;13.23;9.47;;;;;;;12.27;94.70;101115.91;713012;1179;115831;-73
2022/06/03 04:44:35;;;;;;;12.53;9.20;;;;;;;12.81;94.75;101132.51;713830;1170;115104;-82
2022/06/03 05:00:12;;;;;;;16.70;10.80;;;;;;;13.43;95.45;101149.20;713660;1178;114511;-80
2022/06/03 05:15:57;;;;;;;18.07;10.87;;;;;;;13.92;95.90;101159.92;714023;1180;116267;-81
2022/06/03 05:31:28;;;;;;;18.48;11.03;;;;;;;14.66;94.84;101170.94;713519;1177;115380;-82
2022/06/03 05:46:42;;;;;;;12.70;7.33;;;;;;;15.44;93.11;101169.91;716107;1179;115519;-84
2022/06/03 06:02:15;;;;;;;11.00;7.13;;;;;;;16.11;91.42;101181.16;716428;1179;115743;-84
2022/06/03 06:17:20;;;;;;;13.05;5.75;;;;;;;16.79;88.73;101178.94;716463;1180;114465;-84
2022/06/03 06:32:37;;;;;;;8.97;4.97;;;;;;;17.35;84.85;101187.42;713848;1178;115899;-81
2022/06/03 06:48:03;;;;;;;7.40;3.60;;;;;;;17.89;82.33;101173.05;713360;1178;115090;-75
2022/06/03 07:03:30;;;;;;;4.80;3.40;;;;;;;18.52;79.14;101174.33;716978;1180;115617;-77
2022/06/03 07:34:16;;;;;;;5.17;2.40;;;;;;;19.52;72.71;101161.69;714488;1180;115130;-75
2022/06/03 07:49:22;;;;;;;5.20;2.17;;;;;;;19.65;69.45;101161.13;713814;1178;115904;-83
2022/06/03 08:04:29;;;;;;;8.80;2.90;;;;;;;19.95;68.17;101146.19;713361;1180;115276;-75
2022/06/03 08:19:34;;;;;;;6.67;3.00;;;;;;;21.11;67.37;101144.23;714242;1177;114782;-76
2022/06/03 08:34:44;;;;;;;3.40;1.70;;;;;;;21.75;65.19;101149.97;715628;1179;115377;-76
2022/06/03 08:50:05;;;;;;;2.50;1.85;;;;;;;22.04;63.26;101142.86;713647;1177;115572;-76
2022/06/03 09:05:26;;;;;;;4.60;2.50;;;;;;;22.75;61.21;101142.05;713375;1177;115567;-76
2022/06/03 09:20:44;;;;;;;2.58;1.78;;;;;;;23.09;60.68;101157.31;713227;1180;115555;-76
2022/06/03 09:35:51;;;;;;;3.05;1.73;;;;;;;22.87;59.83;101155.70;713288;1177;115860;-75
2022/06/03 09:50:56;;;;;;;4.83;1.80;;;;;;;23.27;57.72;101155.98;712373;1173;115235;-76
2022/06/03 10:05:59;;;;;;;2.00;1.60;;;;;;;22.94;56.51;101145.89;713028;1177;115833;-76
2022/06/03 10:21:05;;;;;;;4.63;2.40;;;;;;;23.82;56.80;101133.72;713758;1178;115086;-76
2022/06/03 10:36:09;;;;;;;2.33;1.70;;;;;;;23.64;56.40;101136.98;713165;1179;115042;-75
2022/06/03 10:51:17;;;;;;;3.10;2.27;;;;;;;24.65;53.79;101135.27;713754;1180;115970;-74
2022/06/03 11:06:25;;;;;;;6.60;2.87;;;;;;;24.32;53.88;101123.49;713705;1177;115267;-69
2022/06/03 11:21:29;;;;;;;3.10;2.30;;;;;;;25.12;53.35;101106.47;715943;1178;116055;-81
2022/06/03 11:36:45;;;;;;;3.43;1.90;;;;;;;24.42;53.78;101085.56;713117;1178;115686;-75
2022/06/03 11:51:48;;;;;;;5.27;1.90;;;;;;;25.85;51.80;101078.41;713232;1177;115813;-74
2022/06/03 12:06:53;;;;;;;1.70;1.48;;;;;;;25.94;51.65;101064.73;712595;1177;115453;-76
2022/06/03 12:22:14;;;;;;;2.50;1.53;;;;;;;25.95;52.73;101064.52;712545;1180;114316;-75
2022/06/03 12:37:27;;;;;;;2.03;1.70;;;;;;;26.53;51.83;101038.38;712137;1177;115163;-74
2022/06/03 12:52:29;;;;;;;4.40;2.20;;;;;;;26.14;49.52;101040.41;712415;1177;114329;-75
2022/06/03 13:07:35;;;;;;;1.47;1.30;;;;;;;26.57;50.58;101015.36;711967;1180;115699;-75
2022/06/03 13:22:51;;;;;;;4.40;1.50;;;;;;;26.64;49.49;101017.97;712144;1179;114378;-75
2022/06/03 13:37:57;;;;;;;3.25;2.95;;;;;;;26.56;49.65;101008.33;712081;1177;114286;-75
2022/06/03 13:53:04;;;;;;;2.15;1.30;;;;;;;26.57;49.11;100989.27;712302;1177;115752;-75
2022/06/03 14:08:21;;;;;;;1.97;1.30;;;;;;;26.80;48.92;100987.78;712258;1177;114295;-75
2022/06/03 14:23:27;;;;;;;1.70;1.60;;;;;;;27.62;49.10;100972.16;712327;1180;115547;-69
2022/06/03 14:38:59;;;;;;;1.10;1.00;;;;;;;27.51;48.72;100957.62;712395;1177;115799;-70
2022/06/03 14:54:09;;;;;;;2.20;1.20;;;;;;;26.97;49.02;100942.22;712417;1178;115197;-72
2022/06/03 15:09:23;;;;;;;1.67;1.37;;;;;;;26.00;50.22;100919.55;712801;1180;115773;-71
2022/06/03 15:24:26;;;;;;;1.63;1.40;;;;;;;26.49;49.32;100911.58;712746;1179;115027;-72
2022/06/03 15:39:35;;;;;;;2.25;1.33;;;;;;;26.33;50.57;100906.80;713153;1180;114340;-72
2022/06/03 15:54:39;;;;;;;4.10;1.75;;;;;;;26.13;49.05;100918.63;712226;1177;114428;-71
2022/06/03 16:10:00;;;;;;;3.65;2.20;;;;;;;25.76;49.71;100897.03;712447;1178;115616;-72
2022/06/03 16:25:21;;;;;;;1.90;1.50;;;;;;;25.05;50.45;100894.48;712442;1177;115959;-71
2022/06/03 16:40:46;;;;;;;2.68;2.25;;;;;;;25.00;51.14;100886.26;712218;1177;115564;-72
2022/06/03 16:55:55;;;;;;;2.00;1.80;;;;;;;24.55;51.33;100892.45;712154;1177;115723;-72
2022/06/03 17:11:06;;;;;;;40.93;26.37;;;;;;;24.81;52.04;100876.47;712200;1177;115576;-73
2022/06/03 17:26:23;;;;;;;14.90;10.95;;;;;;;24.73;52.34;100862.28;712323;1179;115989;-73
2022/06/03 17:41:37;;;;;;;3.30;2.50;;;;;;;24.49;52.92;100855.77;712260;1180;115782;-72
2022/06/03 17:56:50;;;;;;;9.70;6.90;;;;;;;24.21;53.55;100848.88;712356;1179;115411;-72
2022/06/03 18:11:53;;;;;;;14.17;5.87;;;;;;;23.39;55.85;100857.25;712480;1177;115023;-73
2022/06/03 18:27:03;;;;;;;6.33;3.98;;;;;;;22.54;58.12;100852.38;712260;1177;114463;-73
2022/06/03 18:58:11;;;;;;;15.20;6.83;;;;;;;21.37;61.60;100860.05;712319;1179;115308;-72
2022/06/03 19:13:40;;;;;;;22.08;10.93;;;;;;;20.83;64.10;100869.39;712047;1179;115362;-72
2022/06/03 19:28:45;;;;;;;5.93;5.33;;;;;;;20.36;66.29;100870.66;713454;1179;116073;-72
2022/06/03 19:44:05;;;;;;;13.13;7.53;;;;;;;19.75;67.74;100863.65;713454;1180;116634;-72
2022/06/03 19:59:30;;;;;;;22.58;13.45;;;;;;;19.28;69.11;100862.89;713877;1180;115703;-72
2022/06/03 20:14:38;;;;;;;69.73;35.63;;;;;;;18.77;71.27;100842.95;713978;1178;115841;-73
2022/06/03 20:29:56;;;;;;;61.00;31.93;;;;;;;18.29;73.01;100840.38;714986;1178;114637;-73
2022/06/03 20:45:21;;;;;;;40.10;22.17;;;;;;;17.94;73.36;100837.17;713371;1178;115156;-73
2022/06/03 21:00:28;;;;;;;60.50;32.70;;;;;;;17.47;74.94;100845.84;714126;1178;115757;-72
2022/06/03 21:15:31;;;;;;;44.05;24.25;;;;;;;17.17;76.38;100852.64;714144;1179;115626;-72
2022/06/03 21:30:38;;;;;;;42.95;22.15;;;;;;;16.82;77.40;100851.91;713232;1177;115675;-73
2022/06/03 21:46:34;;;;;;;39.30;21.70;;;;;;;16.59;78.45;100861.28;711961;1180;115799;-72
2022/06/03 22:01:39;;;;;;;39.38;20.28;;;;;;;16.30;79.04;100859.84;712273;1177;117500;-72
2022/06/03 22:16:45;;;;;;;35.23;20.47;;;;;;;16.10;79.34;100861.06;712335;1177;115701;-72
2022/06/03 22:32:04;;;;;;;36.40;19.50;;;;;;;15.76;80.06;100852.08;712308;1180;115527;-72
2022/06/03 22:47:07;;;;;;;30.97;18.07;;;;;;;15.58;80.88;100856.58;712190;1177;115347;-72
2022/06/03 23:02:10;;;;;;;29.40;16.38;;;;;;;15.40;81.51;100846.03;712207;1177;116059;-72
2022/06/03 23:17:14;;;;;;;30.93;16.73;;;;;;;15.12;81.59;100844.33;712127;1177;115308;-72
2022/06/03 23:32:16;;;;;;;22.40;15.40;;;;;;;14.94;82.71;100844.31;712281;1179;114821;-72
2022/06/03 23:47:21;;;;;;;31.80;17.77;;;;;;;14.76;82.53;100840.83;712151;1178;115658;-72
